createdAt,value
2017-03-29T00:00:37.972Z,57.12
2017-03-29T00:01:45.186Z,57.10
2017-03-29T00:02:38.699Z,57.30
2017-03-29T00:03:39.197Z,57.06
2017-03-29T00:04:43.396Z,57.25
2017-03-29T00:05:38.475Z,57.17
2017-03-29T00:06:43.930Z,57.12
2017-03-29T00:07:42.393Z,57.79
2017-03-29T00:08:38.277Z,57.71
2017-03-29T00:09:38.709Z,57.13
2017-03-29T00:10:39.186Z,57.03
2017-03-29T00:11:42.780Z,58.10
2017-03-29T00:12:39.159Z,58.06
2017-03-29T00:13:37.975Z,58.78
2017-03-29T00:14:33.657Z,58.94
2017-03-29T00:15:38.194Z,58.87
2017-03-29T00:16:38.160Z,58.36
2017-03-29T00:17:38.257Z,58.85
2017-03-29T00:18:43.187Z,58.06
2017-03-29T00:19:38.010Z,58.40
2017-03-29T00:20:37.751Z,58.40
2017-03-29T00:21:39.379Z,58.20
2017-03-29T00:22:39.258Z,57.83
2017-03-29T00:23:39.164Z,57.74
2017-03-29T00:24:38.265Z,57.81
2017-03-29T00:25:38.223Z,57.86
2017-03-29T00:26:38.767Z,58.02
2017-03-29T00:27:41.424Z,57.77
2017-03-29T00:28:43.208Z,57.86
2017-03-29T00:29:34.071Z,58.85
2017-03-29T00:30:35.378Z,57.85
2017-03-29T00:31:43.315Z,58.28
2017-03-29T00:32:43.761Z,58.16
2017-03-29T00:33:43.821Z,57.85
2017-03-29T00:34:48.467Z,58.55
2017-03-29T00:35:39.206Z,58.75
2017-03-29T00:36:43.454Z,58.92
2017-03-29T00:37:38.449Z,58.84
2017-03-29T00:38:38.513Z,58.04
2017-03-29T00:39:45.681Z,57.84
2017-03-29T00:40:54.007Z,57.26
2017-03-29T00:41:48.973Z,57.78
2017-03-29T00:42:42.825Z,57.65
2017-03-29T00:43:39.234Z,58.21
2017-03-29T00:44:45.281Z,58.27
2017-03-29T00:45:38.335Z,57.98
2017-03-29T00:46:38.490Z,57.48
2017-03-29T00:47:45.650Z,58.09
2017-03-29T00:48:42.892Z,58.21
2017-03-29T00:49:42.726Z,58.05
2017-03-29T00:50:41.952Z,57.44
2017-03-29T00:51:43.472Z,57.49
2017-03-29T00:52:42.298Z,57.69
2017-03-29T00:53:38.280Z,57.76
2017-03-29T00:54:42.963Z,57.72
2017-03-29T00:55:38.020Z,57.64
2017-03-29T00:56:58.012Z,57.63
2017-03-29T00:57:39.489Z,57.72
2017-03-29T00:58:38.476Z,57.90
2017-03-29T00:59:41.307Z,58.23
2017-03-29T01:00:48.865Z,58.13
2017-03-29T01:01:38.942Z,58.38
2017-03-29T01:02:42.463Z,58.90
2017-03-29T01:03:43.662Z,58.73
2017-03-29T01:04:38.949Z,58.69
2017-03-29T01:05:38.203Z,59.42
2017-03-29T01:06:38.306Z,58.84
2017-03-29T01:07:38.205Z,59.79
2017-03-29T01:08:38.299Z,59.24
2017-03-29T01:09:42.504Z,59.52
2017-03-29T01:10:38.436Z,59.23
2017-03-29T01:11:38.962Z,59.20
2017-03-29T01:12:38.030Z,59.28
2017-03-29T01:13:37.731Z,59.75
2017-03-29T01:14:34.313Z,59.27
2017-03-29T01:15:37.849Z,58.74
2017-03-29T01:16:38.881Z,59.23
2017-03-29T01:17:38.903Z,58.54
2017-03-29T01:18:43.507Z,59.61
2017-03-29T01:19:45.250Z,60.08
2017-03-29T01:20:38.319Z,59.80
2017-03-29T01:21:38.674Z,59.75
2017-03-29T01:22:38.836Z,60.08
2017-03-29T01:23:39.608Z,59.29
2017-03-29T01:24:39.088Z,59.14
2017-03-29T01:25:33.230Z,59.45
2017-03-29T01:26:38.212Z,59.65
2017-03-29T01:27:42.513Z,59.18
2017-03-29T01:28:45.170Z,58.76
2017-03-29T01:29:34.761Z,58.77
2017-03-29T01:30:39.011Z,58.86
2017-03-29T01:31:44.994Z,59.14
2017-03-29T01:32:42.631Z,58.78
2017-03-29T01:33:39.020Z,58.67
2017-03-29T01:34:35.282Z,59.53
2017-03-29T01:35:38.244Z,59.24
2017-03-29T01:36:33.331Z,59.53
2017-03-29T01:37:44.965Z,59.01
2017-03-29T01:38:45.082Z,59.36
2017-03-29T01:39:42.417Z,59.58
2017-03-29T01:40:38.652Z,59.92
2017-03-29T01:41:43.507Z,60.14
2017-03-29T01:42:38.877Z,60.16
2017-03-29T01:43:44.257Z,60.16
2017-03-29T01:44:34.266Z,60.06
2017-03-29T01:45:38.303Z,59.68
2017-03-29T01:46:38.250Z,60.44
2017-03-29T01:47:37.970Z,60.12
2017-03-29T01:48:38.298Z,61.58
2017-03-29T01:49:38.867Z,60.49
2017-03-29T01:50:38.971Z,60.74
2017-03-29T01:51:37.941Z,60.32
2017-03-29T01:52:38.044Z,59.97
2017-03-29T01:53:38.013Z,60.94
2017-03-29T01:54:37.992Z,60.37
2017-03-29T01:55:43.104Z,60.84
2017-03-29T01:56:37.979Z,60.61
2017-03-29T01:57:37.979Z,60.45
2017-03-29T01:58:45.082Z,60.75
2017-03-29T01:59:34.707Z,60.68
2017-03-29T02:00:43.571Z,61.43
2017-03-29T02:01:45.319Z,61.13
2017-03-29T02:02:43.290Z,60.65
2017-03-29T02:03:43.021Z,61.33
2017-03-29T02:04:37.959Z,61.43
2017-03-29T02:05:37.868Z,60.60
2017-03-29T02:06:44.288Z,61.57
2017-03-29T02:07:39.591Z,61.38
2017-03-29T02:08:38.657Z,62.47
2017-03-29T02:09:35.173Z,61.43
2017-03-29T02:10:45.283Z,60.91
2017-03-29T02:11:52.212Z,60.53
2017-03-29T02:12:43.847Z,61.18
2017-03-29T02:13:56.995Z,61.63
2017-03-29T02:14:45.424Z,61.59
2017-03-29T02:15:55.175Z,61.51
2017-03-29T02:16:51.549Z,61.14
2017-03-29T02:17:54.071Z,61.06
2017-03-29T02:18:43.185Z,61.61
2017-03-29T02:19:47.848Z,61.50
2017-03-29T02:20:43.628Z,61.63
2017-03-29T02:21:38.311Z,62.24
2017-03-29T02:22:39.191Z,61.67
2017-03-29T02:23:39.753Z,62.15
2017-03-29T02:24:39.200Z,62.46
2017-03-29T02:25:39.036Z,62.89
2017-03-29T02:26:38.023Z,62.26
2017-03-29T02:27:38.395Z,62.56
2017-03-29T02:28:48.212Z,62.36
2017-03-29T02:29:35.038Z,61.92
2017-03-29T02:30:38.043Z,61.82
2017-03-29T02:31:38.379Z,61.55
2017-03-29T02:32:46.722Z,61.71
2017-03-29T02:33:38.623Z,61.75
2017-03-29T02:34:43.330Z,61.90
2017-03-29T02:35:45.223Z,61.98
2017-03-29T02:36:49.629Z,61.78
2017-03-29T02:37:43.332Z,61.55
2017-03-29T02:38:38.402Z,61.24
2017-03-29T02:39:38.474Z,61.26
2017-03-29T02:40:45.283Z,61.46
2017-03-29T02:41:38.479Z,61.21
2017-03-29T02:42:43.643Z,61.84
2017-03-29T02:43:43.340Z,61.46
2017-03-29T02:44:36.095Z,62.03
2017-03-29T02:45:37.800Z,62.05
2017-03-29T02:46:38.980Z,62.21
2017-03-29T02:47:45.165Z,61.88
2017-03-29T02:48:44.903Z,63.12
2017-03-29T02:49:38.977Z,62.74
2017-03-29T02:50:37.808Z,62.30
2017-03-29T02:51:39.154Z,61.51
2017-03-29T02:52:38.360Z,61.31
2017-03-29T02:53:45.512Z,61.29
2017-03-29T02:54:39.160Z,61.09
2017-03-29T02:55:33.114Z,61.24
2017-03-29T02:56:38.164Z,61.31
2017-03-29T02:57:37.988Z,61.57
2017-03-29T02:58:37.577Z,62.27
2017-03-29T02:59:39.762Z,62.06
2017-03-29T03:00:43.356Z,62.31
2017-03-29T03:01:38.364Z,62.87
2017-03-29T03:02:38.474Z,62.45
2017-03-29T03:03:38.977Z,62.84
2017-03-29T03:04:37.478Z,62.69
2017-03-29T03:05:43.348Z,62.58
2017-03-29T03:06:33.416Z,62.18
2017-03-29T03:07:43.366Z,62.52
2017-03-29T03:08:45.494Z,62.50
2017-03-29T03:09:35.954Z,62.54
2017-03-29T03:10:38.359Z,62.67
2017-03-29T03:11:45.493Z,62.97
2017-03-29T03:12:38.392Z,63.35
2017-03-29T03:13:38.442Z,63.31
2017-03-29T03:14:30.081Z,63.33
2017-03-29T03:15:38.142Z,62.99
2017-03-29T03:16:43.041Z,62.84
2017-03-29T03:17:43.146Z,63.22
2017-03-29T03:18:38.200Z,63.77
2017-03-29T03:19:38.010Z,63.57
2017-03-29T03:20:38.089Z,64.10
2017-03-29T03:21:38.082Z,64.32
2017-03-29T03:22:44.903Z,63.58
2017-03-29T03:23:38.970Z,63.67
2017-03-29T03:24:37.680Z,63.01
2017-03-29T03:25:38.488Z,63.57
2017-03-29T03:26:45.514Z,63.78
2017-03-29T03:27:39.099Z,63.25
2017-03-29T03:28:47.692Z,63.30
2017-03-29T03:29:40.179Z,63.34
2017-03-29T03:30:33.050Z,63.48
2017-03-29T03:31:42.688Z,63.00
2017-03-29T03:32:48.888Z,63.94
2017-03-29T03:33:39.168Z,63.41
2017-03-29T03:34:38.335Z,63.53
2017-03-29T03:35:45.511Z,63.62
2017-03-29T03:36:43.327Z,63.54
2017-03-29T03:37:53.619Z,63.25
2017-03-29T03:38:45.691Z,64.66
2017-03-29T03:39:39.463Z,64.79
2017-03-29T03:40:39.092Z,64.23
2017-03-29T03:41:38.184Z,64.11
2017-03-29T03:42:38.345Z,64.91
2017-03-29T03:43:38.420Z,64.85
2017-03-29T03:44:36.238Z,64.35
2017-03-29T03:45:38.546Z,64.17
2017-03-29T03:46:46.852Z,65.03
2017-03-29T03:47:38.682Z,64.50
2017-03-29T03:48:45.462Z,64.55
2017-03-29T03:49:38.715Z,64.91
2017-03-29T03:50:39.055Z,64.85
2017-03-29T03:51:42.721Z,65.23
2017-03-29T03:52:43.420Z,65.40
2017-03-29T03:53:38.539Z,65.12
2017-03-29T03:54:43.248Z,64.78
2017-03-29T03:55:45.191Z,65.07
2017-03-29T03:56:43.433Z,65.30
2017-03-29T03:57:38.583Z,65.62
2017-03-29T03:58:39.022Z,65.46
2017-03-29T03:59:43.006Z,65.43
2017-03-29T04:00:37.836Z,65.93
2017-03-29T04:01:39.351Z,65.53
2017-03-29T04:02:38.227Z,65.79
2017-03-29T04:03:37.943Z,66.06
2017-03-29T04:04:44.866Z,65.64
2017-03-29T04:05:38.593Z,66.18
2017-03-29T04:06:38.570Z,65.76
2017-03-29T04:07:43.739Z,65.94
2017-03-29T04:08:38.801Z,65.39
2017-03-29T04:09:42.849Z,65.73
2017-03-29T04:10:34.545Z,66.26
2017-03-29T04:11:39.154Z,66.16
2017-03-29T04:12:38.447Z,66.46
2017-03-29T04:13:38.155Z,65.91
2017-03-29T04:14:36.264Z,66.21
2017-03-29T04:15:38.170Z,66.20
2017-03-29T04:16:45.085Z,65.85
2017-03-29T04:17:45.062Z,66.02
2017-03-29T04:18:37.761Z,65.87
2017-03-29T04:19:39.379Z,66.45
2017-03-29T04:20:38.309Z,66.26
2017-03-29T04:21:43.903Z,66.07
2017-03-29T04:22:35.064Z,67.32
2017-03-29T04:23:33.572Z,66.81
2017-03-29T04:24:38.532Z,66.39
2017-03-29T04:26:39.059Z,66.67
2017-03-29T04:27:44.912Z,66.92
2017-03-29T04:28:39.371Z,67.19
2017-03-29T04:29:40.393Z,66.85
2017-03-29T04:30:43.770Z,67.20
2017-03-29T04:31:43.527Z,66.68
2017-03-29T04:32:45.372Z,66.38
2017-03-29T04:33:38.268Z,66.31
2017-03-29T04:34:38.483Z,67.01
2017-03-29T04:35:43.535Z,67.18
2017-03-29T04:36:45.429Z,67.58
2017-03-29T04:37:41.967Z,67.75
2017-03-29T04:38:44.854Z,67.74
2017-03-29T04:39:38.619Z,67.53
2017-03-29T04:40:38.973Z,67.84
2017-03-29T04:41:42.478Z,67.10
2017-03-29T04:42:45.456Z,67.08
2017-03-29T04:43:38.275Z,67.74
2017-03-29T04:44:36.015Z,67.09
2017-03-29T04:45:38.341Z,67.65
2017-03-29T04:46:38.184Z,67.21
2017-03-29T04:47:38.152Z,68.05
2017-03-29T04:48:38.321Z,67.36
2017-03-29T04:49:38.121Z,67.99
2017-03-29T04:50:38.035Z,67.36
2017-03-29T04:51:38.169Z,66.83
2017-03-29T04:52:33.321Z,67.35
2017-03-29T04:53:38.246Z,68.21
2017-03-29T04:54:45.374Z,67.44
2017-03-29T04:55:45.404Z,68.22
2017-03-29T04:56:43.635Z,68.39
2017-03-29T04:57:45.478Z,68.31
2017-03-29T04:58:39.308Z,68.11
2017-03-29T04:59:40.918Z,68.11
2017-03-29T05:00:45.384Z,68.35
2017-03-29T05:01:38.593Z,68.09
2017-03-29T05:02:38.305Z,68.80
2017-03-29T05:03:38.838Z,68.40
2017-03-29T05:04:44.227Z,67.98
2017-03-29T05:05:37.686Z,68.49
2017-03-29T05:06:38.967Z,68.12
2017-03-29T05:07:38.501Z,67.98
2017-03-29T05:09:36.559Z,68.14
2017-03-29T05:10:43.942Z,68.72
2017-03-29T05:11:33.059Z,67.97
2017-03-29T05:12:37.772Z,67.69
2017-03-29T05:13:38.626Z,67.59
2017-03-29T05:14:36.741Z,67.94
2017-03-29T05:15:45.513Z,68.14
2017-03-29T05:16:45.467Z,68.38
2017-03-29T05:17:38.495Z,68.26
2017-03-29T05:18:45.494Z,68.34
2017-03-29T05:19:43.168Z,68.47
2017-03-29T05:20:37.959Z,67.63
2017-03-29T05:21:37.871Z,68.29
2017-03-29T05:22:39.007Z,67.97
2017-03-29T05:23:38.633Z,68.29
2017-03-29T05:24:40.071Z,68.51
2017-03-29T05:25:41.215Z,68.21
2017-03-29T05:26:33.276Z,68.75
2017-03-29T05:27:38.261Z,68.49
2017-03-29T05:28:38.269Z,68.88
2017-03-29T05:29:36.891Z,68.21
2017-03-29T05:30:44.269Z,68.32
2017-03-29T05:31:38.457Z,68.26
2017-03-29T05:32:33.540Z,68.32
2017-03-29T05:33:33.931Z,68.13
2017-03-29T05:34:37.752Z,68.29
2017-03-29T05:35:43.279Z,67.95
2017-03-29T05:36:38.282Z,67.95
2017-03-29T05:37:38.531Z,68.14
2017-03-29T05:38:38.623Z,67.84
2017-03-29T05:39:38.322Z,67.85
2017-03-29T05:40:45.393Z,68.58
2017-03-29T05:41:38.158Z,68.21
2017-03-29T05:42:33.053Z,68.58
2017-03-29T05:43:43.312Z,68.79
2017-03-29T05:44:37.441Z,68.24
2017-03-29T05:45:39.263Z,69.28
2017-03-29T05:46:38.159Z,68.72
2017-03-29T05:47:45.176Z,69.27
2017-03-29T05:48:38.348Z,68.82
2017-03-29T05:49:38.123Z,69.08
2017-03-29T05:50:38.010Z,69.02
2017-03-29T05:51:38.019Z,68.74
2017-03-29T05:52:42.777Z,68.95
2017-03-29T05:53:44.283Z,69.09
2017-03-29T05:57:29.412Z,68.25
2017-03-29T05:58:39.182Z,68.21
2017-03-29T05:59:43.943Z,67.94
2017-03-29T06:00:37.824Z,67.93
2017-03-29T06:01:38.924Z,67.67
2017-03-29T06:02:37.770Z,67.35
2017-03-29T06:03:39.057Z,67.45
2017-03-29T06:04:37.965Z,67.07
2017-03-29T06:05:33.065Z,68.03
2017-03-29T06:06:23.718Z,68.46
2017-03-29T06:07:12.059Z,68.49
2017-03-29T06:08:45.483Z,67.73
2017-03-29T06:09:44.055Z,66.91
2017-03-29T06:10:38.110Z,66.59
2017-03-29T06:11:45.185Z,67.47
2017-03-29T06:12:38.018Z,66.61
2017-03-29T06:13:47.943Z,66.23
2017-03-29T06:14:37.012Z,65.84
2017-03-29T06:15:42.781Z,65.71
2017-03-29T06:16:39.600Z,65.77
2017-03-29T06:17:39.329Z,66.26
2017-03-29T06:18:38.149Z,65.67
2017-03-29T06:19:33.079Z,65.62
2017-03-29T06:20:49.318Z,65.96
2017-03-29T06:21:52.509Z,65.96
2017-03-29T06:22:38.799Z,65.58
2017-03-29T06:23:53.458Z,65.54
2017-03-29T06:24:43.132Z,65.86
2017-03-29T06:25:37.983Z,65.75
2017-03-29T06:26:38.036Z,65.69
2017-03-29T06:27:38.036Z,65.73
2017-03-29T06:28:37.497Z,65.35
2017-03-29T06:29:41.386Z,64.62
2017-03-29T06:30:38.246Z,65.27
2017-03-29T06:31:45.210Z,64.86
2017-03-29T06:32:38.275Z,64.13
2017-03-29T06:33:38.370Z,64.49
2017-03-29T06:34:45.564Z,63.99
2017-03-29T06:35:38.361Z,63.59
2017-03-29T06:36:45.188Z,63.72
2017-03-29T06:37:38.515Z,64.26
2017-03-29T06:38:45.838Z,64.28
2017-03-29T06:39:42.111Z,64.29
2017-03-29T06:40:45.054Z,64.35
2017-03-29T06:41:43.240Z,64.11
2017-03-29T06:42:43.340Z,63.87
2017-03-29T06:43:38.054Z,64.15
2017-03-29T06:44:43.877Z,64.29
2017-03-29T06:45:38.829Z,64.17
2017-03-29T06:46:43.331Z,64.25
2017-03-29T06:47:45.208Z,64.42
2017-03-29T06:48:33.305Z,64.60
2017-03-29T06:49:38.622Z,64.77
2017-03-29T06:50:38.326Z,64.92
2017-03-29T06:51:44.324Z,64.96
2017-03-29T06:52:45.574Z,65.04
2017-03-29T06:53:43.322Z,65.08
2017-03-29T06:54:46.747Z,64.74
2017-03-29T06:55:34.085Z,64.81
2017-03-29T06:56:38.162Z,65.14
2017-03-29T06:57:42.914Z,65.23
2017-03-29T06:58:38.776Z,65.43
2017-03-29T06:59:48.353Z,65.46
2017-03-29T07:00:39.112Z,65.53
2017-03-29T07:01:38.161Z,65.40
2017-03-29T07:02:38.149Z,65.60
2017-03-29T07:03:45.045Z,65.26
2017-03-29T07:04:38.121Z,65.28
2017-03-29T07:05:38.259Z,64.66
2017-03-29T07:06:33.296Z,64.48
2017-03-29T07:07:39.079Z,64.63
2017-03-29T07:08:44.965Z,64.18
2017-03-29T07:09:38.072Z,64.23
2017-03-29T07:10:44.995Z,64.36
2017-03-29T07:11:36.529Z,64.26
2017-03-29T07:12:39.138Z,64.53
2017-03-29T07:13:38.274Z,64.75
2017-03-29T07:14:36.912Z,64.79
2017-03-29T07:15:45.024Z,64.80
2017-03-29T07:16:44.887Z,64.98
2017-03-29T07:17:39.023Z,65.08
2017-03-29T07:18:38.083Z,65.21
2017-03-29T07:19:44.892Z,65.11
2017-03-29T07:20:39.090Z,64.93
2017-03-29T07:21:38.068Z,64.69
2017-03-29T07:22:37.832Z,64.91
2017-03-29T07:23:45.571Z,64.93
2017-03-29T07:24:43.692Z,64.65
2017-03-29T07:25:45.598Z,64.31
2017-03-29T07:26:45.701Z,64.28
2017-03-29T07:27:39.016Z,64.09
2017-03-29T07:28:49.676Z,64.36
2017-03-29T07:29:36.868Z,64.09
2017-03-29T07:30:45.864Z,64.23
2017-03-29T07:31:43.254Z,64.13
2017-03-29T07:32:42.665Z,64.32
2017-03-29T07:33:43.528Z,64.12
2017-03-29T07:34:33.904Z,64.56
2017-03-29T07:35:46.126Z,64.25
2017-03-29T07:36:37.805Z,64.19
2017-03-29T07:37:43.619Z,64.42
2017-03-29T07:38:43.698Z,64.11
2017-03-29T07:39:37.138Z,64.22
2017-03-29T07:40:38.070Z,64.17
2017-03-29T07:41:45.216Z,64.38
2017-03-29T07:42:45.261Z,64.34
2017-03-29T07:43:42.770Z,64.36
2017-03-29T07:44:49.537Z,64.19
2017-03-29T07:45:38.360Z,64.23
2017-03-29T07:46:41.401Z,64.20
2017-03-29T07:47:45.284Z,64.18
2017-03-29T07:48:38.342Z,64.37
2017-03-29T07:49:38.389Z,64.10
2017-03-29T07:50:43.199Z,63.76
2017-03-29T07:51:38.959Z,63.77
2017-03-29T07:52:42.442Z,63.70
2017-03-29T07:53:38.901Z,63.57
2017-03-29T07:54:36.860Z,63.71
2017-03-29T07:55:45.653Z,63.48
2017-03-29T07:56:38.610Z,63.44
2017-03-29T07:57:38.210Z,63.44
2017-03-29T07:58:43.169Z,63.26
2017-03-29T07:59:44.582Z,63.51
2017-03-29T08:00:46.096Z,63.99
2017-03-29T08:01:37.744Z,63.58
2017-03-29T08:02:38.687Z,63.72
2017-03-29T08:03:38.860Z,63.10
2017-03-29T08:04:38.675Z,63.04
2017-03-29T08:05:43.809Z,63.26
2017-03-29T08:06:39.538Z,63.37
2017-03-29T08:07:39.239Z,63.20
2017-03-29T08:08:37.918Z,63.14
2017-03-29T08:09:37.944Z,62.74
2017-03-29T08:10:37.943Z,62.81
2017-03-29T08:11:38.191Z,62.65
2017-03-29T08:12:40.747Z,62.60
2017-03-29T08:20:43.519Z,62.16
2017-03-29T08:21:43.436Z,61.96
2017-03-29T08:22:38.945Z,61.97
2017-03-29T08:23:38.620Z,61.70
2017-03-29T08:24:41.550Z,61.80
2017-03-29T08:25:50.507Z,61.93
2017-03-29T08:26:39.087Z,61.66
2017-03-29T08:28:44.781Z,61.19
2017-03-29T08:29:52.511Z,61.60
2017-03-29T08:30:45.934Z,61.11
2017-03-29T08:31:33.232Z,60.91
2017-03-29T08:32:38.464Z,61.15
2017-03-29T08:33:38.477Z,60.93
2017-03-29T08:34:45.102Z,60.88
2017-03-29T08:35:50.176Z,60.21
2017-03-29T08:36:42.727Z,60.29
2017-03-29T08:37:39.569Z,60.64
2017-03-29T08:38:43.532Z,59.78
2017-03-29T08:39:45.453Z,59.90
2017-03-29T08:40:44.239Z,59.69
2017-03-29T08:41:38.069Z,59.30
2017-03-29T08:42:42.774Z,58.73
2017-03-29T08:43:38.575Z,59.07
2017-03-29T08:44:44.631Z,58.88
2017-03-29T08:45:45.544Z,59.26
2017-03-29T08:46:38.298Z,59.05
2017-03-29T08:47:38.398Z,58.23
2017-03-29T08:48:43.609Z,57.87
2017-03-29T08:49:38.742Z,58.27
2017-03-29T08:50:38.953Z,58.48
2017-03-29T08:51:39.136Z,58.25
2017-03-29T08:52:38.250Z,58.54
2017-03-29T08:53:48.257Z,58.47
2017-03-29T08:54:43.580Z,58.60
2017-03-29T08:55:38.429Z,58.78
2017-03-29T08:56:38.233Z,58.36
2017-03-29T08:57:38.140Z,58.23
2017-03-29T08:58:38.389Z,58.40
2017-03-29T08:59:38.089Z,58.05
2017-03-29T09:00:38.065Z,58.02
2017-03-29T09:01:42.384Z,58.01
2017-03-29T09:02:43.467Z,57.64
2017-03-29T09:03:38.821Z,58.04
2017-03-29T09:04:44.758Z,57.90
2017-03-29T09:05:38.909Z,56.71
2017-03-29T09:06:44.266Z,56.98
2017-03-29T09:07:38.054Z,56.20
2017-03-29T09:08:45.110Z,55.71
2017-03-29T09:09:37.753Z,56.08
2017-03-29T09:10:44.164Z,56.21
2017-03-29T09:11:38.929Z,56.42
2017-03-29T09:12:38.163Z,56.33
2017-03-29T09:13:37.962Z,56.29
2017-03-29T09:14:44.891Z,56.30
2017-03-29T09:15:39.062Z,56.64
2017-03-29T09:16:37.777Z,56.60
2017-03-29T09:17:38.781Z,56.81
2017-03-29T09:18:45.688Z,56.92
2017-03-29T09:19:37.172Z,56.73
2017-03-29T09:20:45.021Z,55.98
2017-03-29T09:21:38.102Z,55.79
2017-03-29T09:22:38.047Z,56.11
2017-03-29T09:23:38.287Z,55.70
2017-03-29T09:24:31.827Z,55.73
2017-03-29T09:26:38.735Z,56.12
2017-03-29T09:27:33.807Z,56.20
2017-03-29T09:28:35.873Z,56.33
2017-03-29T09:29:40.858Z,56.57
2017-03-29T09:30:45.669Z,56.67
2017-03-29T09:31:43.575Z,56.52
2017-03-29T09:32:43.720Z,56.00
2017-03-29T09:33:43.827Z,55.39
2017-03-29T09:34:43.934Z,55.50
2017-03-29T09:35:38.052Z,55.13
2017-03-29T09:36:45.091Z,55.61
2017-03-29T09:37:43.594Z,55.40
2017-03-29T09:38:38.056Z,55.99
2017-03-29T09:39:33.265Z,54.77
2017-03-29T09:42:38.320Z,54.41
2017-03-29T09:43:38.584Z,54.42
2017-03-29T09:44:45.658Z,54.26
2017-03-29T09:46:33.538Z,54.53
2017-03-29T09:47:33.975Z,54.01
2017-03-29T09:48:44.314Z,53.78
2017-03-29T09:49:45.088Z,54.02
2017-03-29T09:50:38.322Z,53.60
2017-03-29T09:51:38.544Z,53.83
2017-03-29T09:52:46.233Z,53.79
2017-03-29T09:53:37.907Z,53.61
2017-03-29T09:54:43.579Z,53.10
2017-03-29T09:58:38.455Z,54.39
2017-03-29T09:59:43.343Z,53.71
2017-03-29T10:00:38.548Z,53.29
2017-03-29T10:01:44.779Z,52.71
2017-03-29T10:02:39.024Z,52.71
2017-03-29T10:03:52.499Z,52.63
2017-03-29T10:04:40.275Z,52.42
2017-03-29T10:05:39.125Z,52.68
2017-03-29T10:06:38.350Z,52.52
2017-03-29T10:07:38.536Z,52.46
2017-03-29T10:08:38.701Z,52.32
2017-03-29T10:09:34.915Z,52.86
2017-03-29T10:11:45.773Z,52.55
2017-03-29T10:12:38.612Z,52.39
2017-03-29T10:14:39.133Z,52.22
2017-03-29T10:15:51.021Z,52.74
2017-03-29T10:16:39.256Z,51.60
2017-03-29T10:17:38.973Z,52.10
2017-03-29T10:18:38.018Z,51.59
2017-03-29T10:19:42.584Z,51.24
2017-03-29T10:20:38.059Z,51.36
2017-03-29T10:21:39.123Z,51.03
2017-03-29T10:22:38.086Z,51.37
2017-03-29T10:23:38.193Z,51.63
2017-03-29T10:24:36.778Z,51.19
2017-03-29T10:25:36.649Z,50.66
2017-03-29T10:26:38.967Z,50.60
2017-03-29T10:27:37.944Z,50.89
2017-03-29T10:28:38.087Z,50.35
2017-03-29T10:29:38.106Z,50.28
2017-03-29T10:30:37.601Z,49.96
2017-03-29T10:31:39.104Z,49.73
2017-03-29T10:32:45.223Z,49.21
2017-03-29T10:33:45.194Z,49.35
2017-03-29T10:34:43.057Z,48.83
2017-03-29T10:35:52.701Z,48.75
2017-03-29T10:36:39.094Z,48.73
2017-03-29T10:37:45.136Z,49.01
2017-03-29T10:38:48.258Z,48.82
2017-03-29T10:40:39.608Z,48.48
2017-03-29T10:41:38.692Z,48.48
2017-03-29T10:42:10.835Z,48.74
2017-03-29T10:43:39.066Z,48.54
2017-03-29T10:45:40.611Z,48.89
2017-03-29T10:46:38.859Z,49.48
2017-03-29T10:47:38.974Z,49.84
2017-03-29T10:51:45.602Z,50.04
2017-03-29T10:53:39.989Z,49.68
2017-03-29T10:54:36.101Z,49.40
2017-03-29T10:55:38.080Z,49.37
2017-03-29T11:01:38.669Z,50.42
2017-03-29T11:02:39.064Z,50.46
2017-03-29T11:03:38.395Z,50.82
2017-03-29T11:04:45.246Z,50.31
2017-03-29T11:05:42.505Z,50.43
2017-03-29T11:06:46.035Z,50.35
2017-03-29T11:07:38.166Z,50.67
2017-03-29T11:08:38.173Z,50.58
2017-03-29T11:09:33.324Z,50.47
2017-03-29T11:10:45.516Z,50.63
2017-03-29T11:11:38.750Z,50.81
2017-03-29T11:12:38.847Z,51.16
2017-03-29T11:13:39.340Z,51.42
2017-03-29T11:14:38.274Z,51.83
2017-03-29T11:15:49.115Z,52.12
2017-03-29T11:16:58.734Z,52.43
2017-03-29T11:18:28.125Z,51.99
2017-03-29T11:20:13.553Z,52.22
2017-03-29T11:20:30.238Z,52.69
2017-03-29T11:25:58.198Z,51.74
2017-03-29T11:26:08.506Z,51.55
2017-03-29T11:26:25.363Z,51.30
2017-03-29T11:27:43.236Z,51.06
2017-03-29T11:28:47.651Z,51.08
2017-03-29T11:29:28.925Z,51.29
2017-03-29T11:30:24.321Z,51.10
2017-03-29T11:31:33.106Z,50.29
2017-03-29T11:32:23.560Z,50.13
2017-03-29T11:33:24.267Z,50.38
2017-03-29T11:35:28.817Z,50.67
2017-03-29T11:36:25.166Z,50.84
2017-03-29T11:37:35.968Z,50.67
2017-03-29T11:38:24.944Z,50.38
2017-03-29T11:39:38.831Z,50.76
2017-03-29T11:40:36.173Z,49.87
2017-03-29T11:41:25.050Z,50.85
2017-03-29T11:42:18.219Z,50.75
2017-03-29T11:43:28.225Z,51.06
2017-03-29T11:44:36.596Z,51.07
2017-03-29T11:45:25.051Z,51.31
2017-03-29T11:46:26.648Z,50.97
2017-03-29T11:47:28.790Z,51.54
2017-03-29T11:48:28.457Z,50.66
2017-03-29T11:49:30.017Z,50.06
2017-03-29T11:50:29.395Z,50.21
2017-03-29T11:51:38.253Z,50.07
2017-03-29T11:52:36.386Z,50.45
2017-03-29T11:53:28.608Z,50.77
2017-03-29T11:54:27.225Z,50.78
2017-03-29T11:55:24.599Z,50.79
2017-03-29T11:56:36.562Z,50.82
2017-03-29T11:57:24.847Z,50.59
2017-03-29T11:58:28.925Z,50.52
2017-03-29T11:59:32.407Z,50.41
2017-03-29T12:00:35.410Z,50.53
2017-03-29T12:01:28.501Z,50.84
2017-03-29T12:02:29.639Z,50.29
2017-03-29T12:03:28.857Z,50.41
2017-03-29T12:04:33.158Z,49.49
2017-03-29T12:05:24.867Z,49.43
2017-03-29T12:06:31.907Z,48.89
2017-03-29T12:07:29.010Z,48.99
2017-03-29T12:08:32.777Z,49.01
2017-03-29T12:09:26.846Z,49.08
2017-03-29T12:10:36.276Z,49.11
2017-03-29T12:11:25.417Z,49.21
2017-03-29T12:12:28.567Z,48.75
2017-03-29T12:13:25.058Z,48.99
2017-03-29T12:14:28.045Z,48.68
2017-03-29T12:15:28.284Z,48.65
2017-03-29T12:16:33.829Z,48.46
2017-03-29T12:17:37.047Z,48.34
2017-03-29T12:18:28.079Z,48.81
2017-03-29T12:19:25.045Z,48.58
2017-03-29T12:20:33.007Z,48.41
2017-03-29T12:21:28.045Z,48.27
2017-03-29T12:22:34.226Z,47.72
2017-03-29T12:23:38.375Z,48.14
2017-03-29T12:24:38.480Z,48.27
2017-03-29T12:25:29.588Z,48.38
2017-03-29T12:26:23.470Z,48.08
2017-03-29T12:27:27.227Z,48.37
2017-03-29T12:28:27.577Z,48.21
2017-03-29T12:29:27.240Z,48.40
2017-03-29T12:30:38.076Z,47.46
2017-03-29T12:31:32.944Z,47.73
2017-03-29T12:32:28.430Z,47.68
2017-03-29T12:33:27.042Z,48.08
2017-03-29T12:34:25.372Z,48.09
2017-03-29T12:35:26.820Z,48.20
2017-03-29T12:36:38.929Z,48.14
2017-03-29T12:37:32.927Z,47.98
2017-03-29T12:38:34.062Z,48.06
2017-03-29T12:39:23.041Z,48.11
2017-03-29T12:40:28.145Z,47.95
2017-03-29T12:41:28.709Z,46.99
2017-03-29T12:42:27.089Z,46.68
2017-03-29T12:43:30.945Z,46.40
2017-03-29T12:44:28.497Z,46.58
2017-03-29T12:45:26.327Z,46.71
2017-03-29T12:46:37.951Z,46.42
2017-03-29T12:47:26.700Z,46.08
2017-03-29T12:48:21.293Z,46.46
2017-03-29T12:49:28.087Z,46.29
2017-03-29T12:50:28.108Z,46.35
2017-03-29T12:51:33.334Z,46.02
2017-03-29T12:52:26.696Z,45.86
2017-03-29T12:53:24.354Z,45.93
2017-03-29T12:54:24.615Z,45.75
2017-03-29T12:55:32.305Z,45.62
2017-03-29T12:56:38.773Z,45.37
2017-03-29T12:57:28.853Z,45.12
2017-03-29T12:58:30.666Z,44.94
2017-03-29T12:59:33.765Z,45.04
2017-03-29T13:00:25.734Z,45.26
2017-03-29T13:01:33.524Z,45.39
2017-03-29T13:02:32.899Z,45.49
2017-03-29T13:03:33.020Z,45.40
2017-03-29T13:04:37.454Z,45.60
2017-03-29T13:05:28.651Z,45.86
2017-03-29T13:06:27.172Z,45.95
2017-03-29T13:07:28.091Z,44.83
2017-03-29T13:08:38.000Z,44.98
2017-03-29T13:09:33.481Z,44.97
2017-03-29T13:10:28.587Z,44.94
2017-03-29T13:11:28.954Z,45.06
2017-03-29T13:12:33.202Z,45.45
2017-03-29T13:15:23.205Z,44.56
2017-03-29T13:16:26.097Z,44.48
2017-03-29T13:22:27.129Z,40.63
2017-03-29T13:23:37.741Z,40.78
2017-03-29T13:24:28.843Z,40.18
2017-03-29T13:25:33.333Z,39.26
2017-03-29T13:26:33.891Z,39.68
2017-03-29T13:27:28.985Z,40.16
2017-03-29T13:28:28.070Z,39.34
2017-03-29T13:29:25.739Z,38.71
2017-03-29T13:30:28.579Z,38.53
2017-03-29T13:31:26.666Z,39.84
2017-03-29T13:32:38.245Z,41.24
2017-03-29T13:33:32.005Z,41.91
2017-03-29T13:34:37.077Z,42.56
2017-03-29T13:35:29.773Z,43.15
2017-03-29T13:36:43.635Z,43.21
2017-03-29T13:37:28.777Z,42.80